sensor_id;sensor_type;location;lat;lon;timestamp;pressure;altitude;pressure_sealevel;temperature;humidity
21900;BME280;11114;50.658;12.704;2023-06-22T00:02:29;96410.16;;;20.76;74.79
21900;BME280;11114;50.658;12.704;2023-06-22T00:05:16;96399.50;;;20.83;74.69
21900;BME280;11114;50.658;12.704;2023-06-22T00:08:03;96398.63;;;20.89;74.21
21900;BME280;11114;50.658;12.704;2023-06-22T00:10:51;96402.69;;;20.91;73.96
21900;BME280;11114;50.658;12.704;2023-06-22T00:13:38;96403.50;;;20.92;73.85
21900;BME280;11114;50.658;12.704;2023-06-22T00:16:26;96394.94;;;20.90;73.41
21900;BME280;11114;50.658;12.704;2023-06-22T00:19:12;96398.25;;;20.85;73.47
21900;BME280;11114;50.658;12.704;2023-06-22T00:21:59;96393.16;;;20.84;73.39
21900;BME280;11114;50.658;12.704;2023-06-22T00:24:46;96393.34;;;20.82;73.08
21900;BME280;11114;50.658;12.704;2023-06-22T00:27:33;96388.06;;;20.82;73.05
21900;BME280;11114;50.658;12.704;2023-06-22T00:30:20;96397.03;;;20.81;72.46
21900;BME280;11114;50.658;12.704;2023-06-22T00:33:06;96404.81;;;20.83;72.25
21900;BME280;11114;50.658;12.704;2023-06-22T00:35:53;96406.25;;;20.79;72.29
21900;BME280;11114;50.658;12.704;2023-06-22T00:38:39;96388.94;;;20.70;72.54
21900;BME280;11114;50.658;12.704;2023-06-22T00:41:27;96393.09;;;20.60;72.80
21900;BME280;11114;50.658;12.704;2023-06-22T00:44:15;96400.81;;;20.61;72.81
21900;BME280;11114;50.658;12.704;2023-06-22T00:47:02;96394.06;;;20.65;73.01
21900;BME280;11114;50.658;12.704;2023-06-22T00:49:50;96391.34;;;20.71;72.50
21900;BME280;11114;50.658;12.704;2023-06-22T00:52:39;96386.03;;;20.71;72.79
21900;BME280;11114;50.658;12.704;2023-06-22T00:55:29;96373.31;;;20.56;73.34
21900;BME280;11114;50.658;12.704;2023-06-22T00:58:18;96377.72;;;20.37;73.97
21900;BME280;11114;50.658;12.704;2023-06-22T01:01:08;96381.03;;;20.26;74.38
21900;BME280;11114;50.658;12.704;2023-06-22T01:13:02;96385.28;;;20.34;74.41
21900;BME280;11114;50.658;12.704;2023-06-22T01:15:55;96388.31;;;20.37;73.48
21900;BME280;11114;50.658;12.704;2023-06-22T01:18:47;96389.94;;;20.38;73.49
21900;BME280;11114;50.658;12.704;2023-06-22T01:21:37;96384.03;;;20.36;73.43
21900;BME280;11114;50.658;12.704;2023-06-22T01:24:32;96372.84;;;20.28;74.05
21900;BME280;11114;50.658;12.704;2023-06-22T01:30:31;96384.81;;;19.99;74.70
21900;BME280;11114;50.658;12.704;2023-06-22T01:33:22;96370.34;;;20.02;75.06
21900;BME280;11114;50.658;12.704;2023-06-22T01:36:10;96363.59;;;20.06;74.90
21900;BME280;11114;50.658;12.704;2023-06-22T01:38:59;96362.81;;;19.99;74.43
21900;BME280;11114;50.658;12.704;2023-06-22T01:41:47;96367.72;;;19.89;74.86
21900;BME280;11114;50.658;12.704;2023-06-22T01:44:34;96357.59;;;19.73;75.47
21900;BME280;11114;50.658;12.704;2023-06-22T01:47:24;96355.59;;;19.62;76.18
21900;BME280;11114;50.658;12.704;2023-06-22T01:50:12;96361.50;;;19.64;76.84
21900;BME280;11114;50.658;12.704;2023-06-22T01:52:58;96354.34;;;19.71;76.52
21900;BME280;11114;50.658;12.704;2023-06-22T01:55:44;96347.41;;;19.70;76.33
21900;BME280;11114;50.658;12.704;2023-06-22T01:58:32;96339.69;;;19.69;76.47
21900;BME280;11114;50.658;12.704;2023-06-22T02:01:24;96351.06;;;19.76;76.39
21900;BME280;11114;50.658;12.704;2023-06-22T02:04:21;96363.69;;;19.80;76.23
21900;BME280;11114;50.658;12.704;2023-06-22T02:07:14;96355.53;;;19.75;76.12
21900;BME280;11114;50.658;12.704;2023-06-22T02:10:05;96364.94;;;19.78;76.34
21900;BME280;11114;50.658;12.704;2023-06-22T02:12:54;96373.88;;;19.83;76.21
21900;BME280;11114;50.658;12.704;2023-06-22T02:15:41;96385.84;;;19.92;75.70
21900;BME280;11114;50.658;12.704;2023-06-22T02:18:30;96383.41;;;19.97;75.53
21900;BME280;11114;50.658;12.704;2023-06-22T02:21:19;96381.38;;;19.99;75.02
21900;BME280;11114;50.658;12.704;2023-06-22T02:24:05;96379.53;;;19.99;75.01
21900;BME280;11114;50.658;12.704;2023-06-22T02:26:51;96379.31;;;20.01;74.84
21900;BME280;11114;50.658;12.704;2023-06-22T02:29:38;96369.31;;;20.03;74.95
21900;BME280;11114;50.658;12.704;2023-06-22T02:32:24;96368.91;;;20.06;74.83
21900;BME280;11114;50.658;12.704;2023-06-22T02:35:11;96360.94;;;20.06;74.43
21900;BME280;11114;50.658;12.704;2023-06-22T02:37:58;96361.19;;;20.04;74.74
21900;BME280;11114;50.658;12.704;2023-06-22T02:40:46;96359.97;;;20.00;74.63
21900;BME280;11114;50.658;12.704;2023-06-22T02:43:33;96361.59;;;19.95;75.14
21900;BME280;11114;50.658;12.704;2023-06-22T02:46:19;96365.28;;;19.87;75.64
21900;BME280;11114;50.658;12.704;2023-06-22T02:49:07;96358.38;;;19.80;75.96
21900;BME280;11114;50.658;12.704;2023-06-22T02:51:54;96363.91;;;19.72;76.48
21900;BME280;11114;50.658;12.704;2023-06-22T02:54:40;96363.53;;;19.69;76.57
21900;BME280;11114;50.658;12.704;2023-06-22T02:57:27;96356.78;;;19.66;76.99
21900;BME280;11114;50.658;12.704;2023-06-22T03:00:14;96362.09;;;19.66;77.31
21900;BME280;11114;50.658;12.704;2023-06-22T03:03:06;96360.50;;;19.65;77.11
21900;BME280;11114;50.658;12.704;2023-06-22T03:05:52;96363.72;;;19.67;77.43
21900;BME280;11114;50.658;12.704;2023-06-22T03:08:41;96349.88;;;19.65;77.40
21900;BME280;11114;50.658;12.704;2023-06-22T03:11:28;96345.81;;;19.63;77.66
21900;BME280;11114;50.658;12.704;2023-06-22T03:14:15;96350.91;;;19.64;77.70
21900;BME280;11114;50.658;12.704;2023-06-22T03:17:04;96344.59;;;19.65;77.43
21900;BME280;11114;50.658;12.704;2023-06-22T03:19:51;96334.56;;;19.67;77.29
21900;BME280;11114;50.658;12.704;2023-06-22T03:22:40;96339.06;;;19.73;77.33
21900;BME280;11114;50.658;12.704;2023-06-22T03:25:27;96333.94;;;19.78;77.41
21900;BME280;11114;50.658;12.704;2023-06-22T03:28:14;96342.72;;;19.79;77.41
21900;BME280;11114;50.658;12.704;2023-06-22T03:31:00;96350.03;;;19.83;77.05
21900;BME280;11114;50.658;12.704;2023-06-22T03:33:49;96341.84;;;19.91;76.60
21900;BME280;11114;50.658;12.704;2023-06-22T03:36:36;96334.28;;;19.94;76.71
21900;BME280;11114;50.658;12.704;2023-06-22T03:39:22;96334.28;;;19.94;76.36
21900;BME280;11114;50.658;12.704;2023-06-22T03:42:08;96336.94;;;19.88;76.72
21900;BME280;11114;50.658;12.704;2023-06-22T03:44:54;96338.19;;;19.85;76.80
21900;BME280;11114;50.658;12.704;2023-06-22T03:47:41;96342.09;;;19.83;76.81
21900;BME280;11114;50.658;12.704;2023-06-22T03:50:28;96353.09;;;19.80;77.06
21900;BME280;11114;50.658;12.704;2023-06-22T03:53:15;96358.38;;;19.80;77.42
21900;BME280;11114;50.658;12.704;2023-06-22T03:56:02;96374.47;;;19.85;77.30
21900;BME280;11114;50.658;12.704;2023-06-22T03:58:49;96385.03;;;19.91;77.06
21900;BME280;11114;50.658;12.704;2023-06-22T04:01:35;96389.91;;;20.01;76.71
21900;BME280;11114;50.658;12.704;2023-06-22T04:04:23;96393.38;;;20.08;76.67
21900;BME280;11114;50.658;12.704;2023-06-22T04:07:09;96398.44;;;20.16;76.35
21900;BME280;11114;50.658;12.704;2023-06-22T04:09:56;96406.34;;;20.22;76.40
21900;BME280;11114;50.658;12.704;2023-06-22T04:12:42;96423.03;;;20.29;76.13
21900;BME280;11114;50.658;12.704;2023-06-22T04:15:29;96440.97;;;20.34;76.05
21900;BME280;11114;50.658;12.704;2023-06-22T04:18:15;96461.34;;;20.40;75.76
21900;BME280;11114;50.658;12.704;2023-06-22T04:21:02;96473.78;;;20.39;76.15
21900;BME280;11114;50.658;12.704;2023-06-22T04:23:50;96484.63;;;20.31;76.58
21900;BME280;11114;50.658;12.704;2023-06-22T04:26:37;96496.22;;;20.37;77.11
21900;BME280;11114;50.658;12.704;2023-06-22T04:29:24;96494.78;;;20.41;77.38
21900;BME280;11114;50.658;12.704;2023-06-22T04:32:16;96489.06;;;20.44;77.92
21900;BME280;11114;50.658;12.704;2023-06-22T04:35:05;96487.44;;;20.43;77.85
21900;BME280;11114;50.658;12.704;2023-06-22T04:37:53;96480.50;;;20.42;77.89
21900;BME280;11114;50.658;12.704;2023-06-22T04:40:41;96471.53;;;20.43;77.59
21900;BME280;11114;50.658;12.704;2023-06-22T04:43:28;96478.03;;;20.47;77.27
21900;BME280;11114;50.658;12.704;2023-06-22T04:46:17;96482.91;;;20.50;77.12
21900;BME280;11114;50.658;12.704;2023-06-22T04:49:08;96471.91;;;20.53;76.84
21900;BME280;11114;50.658;12.704;2023-06-22T04:52:00;96467.38;;;20.53;76.52
21900;BME280;11114;50.658;12.704;2023-06-22T04:54:48;96466.16;;;20.56;76.62
21900;BME280;11114;50.658;12.704;2023-06-22T04:57:35;96471.91;;;20.53;76.67
21900;BME280;11114;50.658;12.704;2023-06-22T05:00:22;96469.91;;;20.42;77.00
21900;BME280;11114;50.658;12.704;2023-06-22T05:03:09;96447.06;;;20.41;77.29
21900;BME280;11114;50.658;12.704;2023-06-22T05:06:06;96429.88;;;20.50;77.18
21900;BME280;11114;50.658;12.704;2023-06-22T05:08:56;96431.00;;;20.67;77.42
21900;BME280;11114;50.658;12.704;2023-06-22T05:11:46;96428.47;;;20.84;77.12
21900;BME280;11114;50.658;12.704;2023-06-22T05:14:32;96428.53;;;21.02;77.04
21900;BME280;11114;50.658;12.704;2023-06-22T05:17:19;96410.25;;;21.19;76.59
21900;BME280;11114;50.658;12.704;2023-06-22T05:20:06;96396.59;;;21.33;77.04
21900;BME280;11114;50.658;12.704;2023-06-22T05:22:52;96394.06;;;21.45;76.81
21900;BME280;11114;50.658;12.704;2023-06-22T05:25:39;96378.41;;;21.54;76.88
21900;BME280;11114;50.658;12.704;2023-06-22T05:28:27;96362.00;;;21.64;76.48
21900;BME280;11114;50.658;12.704;2023-06-22T05:31:14;96337.78;;;21.72;76.69
21900;BME280;11114;50.658;12.704;2023-06-22T05:34:00;96306.50;;;21.74;75.22
21900;BME280;11114;50.658;12.704;2023-06-22T05:36:47;96260.28;;;21.75;74.34
21900;BME280;11114;50.658;12.704;2023-06-22T05:39:34;96188.53;;;21.75;73.49
21900;BME280;11114;50.658;12.704;2023-06-22T05:42:23;96164.28;;;21.83;73.60
21900;BME280;11114;50.658;12.704;2023-06-22T05:45:12;96138.41;;;21.90;73.42
21900;BME280;11114;50.658;12.704;2023-06-22T05:47:58;96146.06;;;21.98;73.32
21900;BME280;11114;50.658;12.704;2023-06-22T05:50:45;96168.03;;;22.05;72.80
21900;BME280;11114;50.658;12.704;2023-06-22T05:53:32;96173.25;;;22.11;71.57
21900;BME280;11114;50.658;12.704;2023-06-22T05:56:17;96195.13;;;22.25;70.78
21900;BME280;11114;50.658;12.704;2023-06-22T05:59:04;96217.97;;;22.43;70.75
21900;BME280;11114;50.658;12.704;2023-06-22T06:01:51;96235.34;;;22.57;70.61
21900;BME280;11114;50.658;12.704;2023-06-22T06:04:38;96247.25;;;22.78;70.00
21900;BME280;11114;50.658;12.704;2023-06-22T06:07:24;96255.72;;;22.98;71.05
21900;BME280;11114;50.658;12.704;2023-06-22T06:10:12;96273.94;;;23.12;70.31
21900;BME280;11114;50.658;12.704;2023-06-22T06:12:59;96283.09;;;23.27;69.68
21900;BME280;11114;50.658;12.704;2023-06-22T06:15:48;96290.94;;;23.45;70.50
21900;BME280;11114;50.658;12.704;2023-06-22T06:18:36;96295.88;;;23.65;69.41
21900;BME280;11114;50.658;12.704;2023-06-22T06:21:24;96290.88;;;23.91;69.58
21900;BME280;11114;50.658;12.704;2023-06-22T06:24:11;96290.53;;;24.15;69.54
21900;BME280;11114;50.658;12.704;2023-06-22T06:26:59;96292.72;;;24.46;68.91
21900;BME280;11114;50.658;12.704;2023-06-22T06:29:46;96292.28;;;24.82;66.09
21900;BME280;11114;50.658;12.704;2023-06-22T06:32:34;96292.59;;;25.18;64.32
21900;BME280;11114;50.658;12.704;2023-06-22T06:35:21;96294.47;;;25.56;61.67
21900;BME280;11114;50.658;12.704;2023-06-22T06:38:08;96288.81;;;25.90;62.29
21900;BME280;11114;50.658;12.704;2023-06-22T06:40:54;96293.38;;;26.16;61.14
21900;BME280;11114;50.658;12.704;2023-06-22T06:43:41;96300.97;;;26.50;59.86
21900;BME280;11114;50.658;12.704;2023-06-22T06:46:31;96303.91;;;26.75;59.21
21900;BME280;11114;50.658;12.704;2023-06-22T06:49:17;96306.50;;;26.96;57.38
21900;BME280;11114;50.658;12.704;2023-06-22T06:52:04;96302.56;;;27.04;54.57
21900;BME280;11114;50.658;12.704;2023-06-22T06:54:51;96299.72;;;27.15;56.46
21900;BME280;11114;50.658;12.704;2023-06-22T06:57:38;96303.84;;;27.33;54.55
21900;BME280;11114;50.658;12.704;2023-06-22T07:00:25;96306.88;;;27.41;55.25
21900;BME280;11114;50.658;12.704;2023-06-22T07:03:12;96299.13;;;27.49;54.02
21900;BME280;11114;50.658;12.704;2023-06-22T07:05:59;96304.56;;;27.59;53.27
21900;BME280;11114;50.658;12.704;2023-06-22T07:08:46;96305.22;;;27.76;54.47
21900;BME280;11114;50.658;12.704;2023-06-22T07:11:33;96295.66;;;28.00;53.03
21900;BME280;11114;50.658;12.704;2023-06-22T07:14:19;96286.63;;;28.21;53.52
21900;BME280;11114;50.658;12.704;2023-06-22T07:17:06;96297.44;;;28.46;52.08
21900;BME280;11114;50.658;12.704;2023-06-22T07:19:52;96296.34;;;28.52;50.71
21900;BME280;11114;50.658;12.704;2023-06-22T07:22:41;96299.88;;;28.52;50.31
21900;BME280;11114;50.658;12.704;2023-06-22T07:25:28;96307.16;;;28.67;51.76
21900;BME280;11114;50.658;12.704;2023-06-22T07:28:17;96311.50;;;28.93;51.74
21900;BME280;11114;50.658;12.704;2023-06-22T07:31:03;96300.47;;;29.14;51.02
21900;BME280;11114;50.658;12.704;2023-06-22T07:33:50;96308.81;;;29.42;49.97
21900;BME280;11114;50.658;12.704;2023-06-22T07:36:36;96304.19;;;29.63;48.67
21900;BME280;11114;50.658;12.704;2023-06-22T07:39:23;96303.34;;;29.82;47.94
21900;BME280;11114;50.658;12.704;2023-06-22T07:42:12;96291.44;;;30.08;48.95
21900;BME280;11114;50.658;12.704;2023-06-22T07:45:00;96293.75;;;30.29;48.93
21900;BME280;11114;50.658;12.704;2023-06-22T07:47:46;96292.53;;;30.55;48.25
21900;BME280;11114;50.658;12.704;2023-06-22T07:50:33;96293.28;;;30.66;46.10
21900;BME280;11114;50.658;12.704;2023-06-22T07:53:20;96294.28;;;30.80;46.78
21900;BME280;11114;50.658;12.704;2023-06-22T07:56:11;96293.81;;;31.06;43.48
21900;BME280;11114;50.658;12.704;2023-06-22T07:58:59;96290.50;;;31.14;43.33
21900;BME280;11114;50.658;12.704;2023-06-22T08:01:47;96291.88;;;31.11;43.31
21900;BME280;11114;50.658;12.704;2023-06-22T08:04:35;96288.34;;;31.11;42.52
21900;BME280;11114;50.658;12.704;2023-06-22T08:07:22;96282.94;;;31.16;42.88
21900;BME280;11114;50.658;12.704;2023-06-22T08:10:12;96287.41;;;31.30;43.36
21900;BME280;11114;50.658;12.704;2023-06-22T08:12:58;96283.97;;;31.48;41.80
21900;BME280;11114;50.658;12.704;2023-06-22T08:15:45;96278.78;;;31.57;42.59
21900;BME280;11114;50.658;12.704;2023-06-22T08:18:35;96281.91;;;31.69;42.29
21900;BME280;11114;50.658;12.704;2023-06-22T08:21:21;96278.84;;;31.75;42.56
21900;BME280;11114;50.658;12.704;2023-06-22T08:24:08;96282.34;;;31.76;41.74
21900;BME280;11114;50.658;12.704;2023-06-22T08:26:55;96278.91;;;31.70;41.15
21900;BME280;11114;50.658;12.704;2023-06-22T08:29:43;96282.13;;;31.72;39.00
21900;BME280;11114;50.658;12.704;2023-06-22T08:32:29;96279.31;;;31.82;39.50
21900;BME280;11114;50.658;12.704;2023-06-22T08:35:16;96270.00;;;31.93;39.41
21900;BME280;11114;50.658;12.704;2023-06-22T08:38:02;96267.88;;;32.13;40.63
21900;BME280;11114;50.658;12.704;2023-06-22T08:40:49;96267.69;;;32.47;41.02
21900;BME280;11114;50.658;12.704;2023-06-22T08:43:35;96262.72;;;32.72;39.88
21900;BME280;11114;50.658;12.704;2023-06-22T08:46:23;96252.50;;;32.87;39.37
21900;BME280;11114;50.658;12.704;2023-06-22T08:49:16;96254.22;;;32.97;37.58
21900;BME280;11114;50.658;12.704;2023-06-22T08:52:02;96254.16;;;32.83;37.78
21900;BME280;11114;50.658;12.704;2023-06-22T08:54:49;96259.09;;;32.81;37.94
21900;BME280;11114;50.658;12.704;2023-06-22T08:57:35;96263.03;;;32.70;36.63
21900;BME280;11114;50.658;12.704;2023-06-22T09:00:24;96264.03;;;32.56;37.74
21900;BME280;11114;50.658;12.704;2023-06-22T09:03:10;96261.00;;;32.63;38.14
21900;BME280;11114;50.658;12.704;2023-06-22T09:05:58;96255.63;;;32.94;39.04
21900;BME280;11114;50.658;12.704;2023-06-22T09:08:44;96258.59;;;33.11;36.83
21900;BME280;11114;50.658;12.704;2023-06-22T09:11:33;96251.22;;;32.98;37.00
21900;BME280;11114;50.658;12.704;2023-06-22T09:14:22;96242.09;;;32.94;36.81
21900;BME280;11114;50.658;12.704;2023-06-22T09:17:10;96231.41;;;33.03;37.50
21900;BME280;11114;50.658;12.704;2023-06-22T09:19:56;96226.28;;;33.01;36.73
21900;BME280;11114;50.658;12.704;2023-06-22T09:22:42;96230.00;;;33.05;37.63
21900;BME280;11114;50.658;12.704;2023-06-22T09:25:28;96229.94;;;33.10;36.03
21900;BME280;11114;50.658;12.704;2023-06-22T09:28:15;96221.38;;;33.03;37.59
21900;BME280;11114;50.658;12.704;2023-06-22T09:31:02;96223.56;;;33.20;37.55
21900;BME280;11114;50.658;12.704;2023-06-22T09:33:49;96220.78;;;33.52;37.50
21900;BME280;11114;50.658;12.704;2023-06-22T09:36:35;96232.03;;;33.72;35.72
21900;BME280;11114;50.658;12.704;2023-06-22T09:39:22;96216.06;;;33.57;36.55
21900;BME280;11114;50.658;12.704;2023-06-22T09:42:09;96223.53;;;33.78;36.12
21900;BME280;11114;50.658;12.704;2023-06-22T09:44:55;96212.38;;;33.80;35.56
21900;BME280;11114;50.658;12.704;2023-06-22T09:47:41;96208.06;;;33.79;35.47
21900;BME280;11114;50.658;12.704;2023-06-22T09:50:29;96211.19;;;33.99;35.61
21900;BME280;11114;50.658;12.704;2023-06-22T09:53:15;96221.59;;;34.06;36.23
21900;BME280;11114;50.658;12.704;2023-06-22T09:56:02;96207.56;;;34.17;35.49
21900;BME280;11114;50.658;12.704;2023-06-22T09:58:48;96209.19;;;34.40;35.81
21900;BME280;11114;50.658;12.704;2023-06-22T10:01:39;96200.56;;;34.73;36.65
21900;BME280;11114;50.658;12.704;2023-06-22T10:04:26;96204.38;;;34.94;34.48
21900;BME280;11114;50.658;12.704;2023-06-22T10:07:13;96204.81;;;35.10;34.86
21900;BME280;11114;50.658;12.704;2023-06-22T10:09:59;96205.63;;;35.10;34.55
21900;BME280;11114;50.658;12.704;2023-06-22T10:12:47;96200.91;;;35.24;35.19
21900;BME280;11114;50.658;12.704;2023-06-22T10:15:34;96197.59;;;35.66;35.67
21900;BME280;11114;50.658;12.704;2023-06-22T10:18:21;96203.53;;;35.68;33.26
21900;BME280;11114;50.658;12.704;2023-06-22T10:21:07;96196.50;;;35.36;33.13
21900;BME280;11114;50.658;12.704;2023-06-22T10:23:54;96192.09;;;35.49;33.85
21900;BME280;11114;50.658;12.704;2023-06-22T10:26:41;96188.50;;;35.62;34.03
21900;BME280;11114;50.658;12.704;2023-06-22T10:29:28;96187.00;;;35.95;34.26
21900;BME280;11114;50.658;12.704;2023-06-22T10:32:16;96173.41;;;35.95;32.73
21900;BME280;11114;50.658;12.704;2023-06-22T10:35:02;96178.72;;;36.16;33.09
21900;BME280;11114;50.658;12.704;2023-06-22T10:37:49;96177.81;;;36.29;34.39
21900;BME280;11114;50.658;12.704;2023-06-22T10:40:35;96181.47;;;36.42;31.92
21900;BME280;11114;50.658;12.704;2023-06-22T10:43:21;96177.94;;;36.24;33.01
21900;BME280;11114;50.658;12.704;2023-06-22T10:46:08;96176.38;;;36.23;31.67
21900;BME280;11114;50.658;12.704;2023-06-22T10:48:56;96173.66;;;36.23;32.11
21900;BME280;11114;50.658;12.704;2023-06-22T10:51:44;96177.47;;;36.31;32.79
21900;BME280;11114;50.658;12.704;2023-06-22T10:54:32;96181.69;;;36.54;32.30
21900;BME280;11114;50.658;12.704;2023-06-22T10:57:19;96176.22;;;36.45;31.75
21900;BME280;11114;50.658;12.704;2023-06-22T11:00:05;96165.97;;;36.42;33.19
21900;BME280;11114;50.658;12.704;2023-06-22T11:02:52;96163.09;;;36.64;32.68
21900;BME280;11114;50.658;12.704;2023-06-22T11:05:40;96153.66;;;36.53;32.22
21900;BME280;11114;50.658;12.704;2023-06-22T11:08:25;96155.25;;;36.20;32.49
21900;BME280;11114;50.658;12.704;2023-06-22T11:11:12;96157.63;;;36.22;31.76
21900;BME280;11114;50.658;12.704;2023-06-22T11:13:59;96153.16;;;36.09;32.82
21900;BME280;11114;50.658;12.704;2023-06-22T11:16:46;96146.91;;;36.00;32.66
21900;BME280;11114;50.658;12.704;2023-06-22T11:19:36;96146.53;;;35.85;32.08
21900;BME280;11114;50.658;12.704;2023-06-22T11:22:23;96143.53;;;36.03;32.51
21900;BME280;11114;50.658;12.704;2023-06-22T11:25:10;96142.44;;;36.13;33.33
21900;BME280;11114;50.658;12.704;2023-06-22T11:27:58;96142.75;;;36.19;32.33
21900;BME280;11114;50.658;12.704;2023-06-22T11:30:45;96143.72;;;36.07;31.67
21900;BME280;11114;50.658;12.704;2023-06-22T11:33:32;96137.91;;;35.91;32.11
21900;BME280;11114;50.658;12.704;2023-06-22T11:36:19;96131.81;;;35.86;32.18
21900;BME280;11114;50.658;12.704;2023-06-22T11:39:06;96128.63;;;35.84;32.45
21900;BME280;11114;50.658;12.704;2023-06-22T11:41:52;96123.94;;;35.67;32.97
21900;BME280;11114;50.658;12.704;2023-06-22T11:44:39;96121.03;;;35.55;32.96
21900;BME280;11114;50.658;12.704;2023-06-22T11:47:25;96120.44;;;35.28;32.74
21900;BME280;11114;50.658;12.704;2023-06-22T11:50:11;96114.16;;;35.19;33.95
21900;BME280;11114;50.658;12.704;2023-06-22T11:52:57;96103.19;;;35.24;32.64
21900;BME280;11114;50.658;12.704;2023-06-22T11:55:44;96101.84;;;35.13;33.69
21900;BME280;11114;50.658;12.704;2023-06-22T11:58:30;96095.91;;;34.81;33.58
21900;BME280;11114;50.658;12.704;2023-06-22T12:01:18;96089.06;;;35.05;34.62
21900;BME280;11114;50.658;12.704;2023-06-22T12:04:05;96078.75;;;35.24;34.35
21900;BME280;11114;50.658;12.704;2023-06-22T12:06:52;96081.69;;;35.44;33.92
21900;BME280;11114;50.658;12.704;2023-06-22T12:09:38;96084.56;;;35.39;33.21
21900;BME280;11114;50.658;12.704;2023-06-22T12:12:25;96077.47;;;35.22;33.93
21900;BME280;11114;50.658;12.704;2023-06-22T12:15:11;96073.94;;;35.13;34.58
21900;BME280;11114;50.658;12.704;2023-06-22T12:17:58;96075.03;;;35.20;35.05
21900;BME280;11114;50.658;12.704;2023-06-22T12:20:44;96079.75;;;35.36;34.62
21900;BME280;11114;50.658;12.704;2023-06-22T12:23:31;96075.88;;;35.29;34.40
21900;BME280;11114;50.658;12.704;2023-06-22T12:26:18;96072.22;;;35.25;34.25
21900;BME280;11114;50.658;12.704;2023-06-22T12:29:04;96071.50;;;35.11;34.11
21900;BME280;11114;50.658;12.704;2023-06-22T12:31:51;96069.09;;;34.79;34.03
21900;BME280;11114;50.658;12.704;2023-06-22T12:34:38;96058.47;;;34.39;34.28
21900;BME280;11114;50.658;12.704;2023-06-22T12:37:25;96048.69;;;34.30;35.89
21900;BME280;11114;50.658;12.704;2023-06-22T12:40:11;96051.66;;;34.20;35.53
21900;BME280;11114;50.658;12.704;2023-06-22T12:42:58;96053.00;;;34.09;34.84
21900;BME280;11114;50.658;12.704;2023-06-22T12:45:44;96042.59;;;33.89;36.19
21900;BME280;11114;50.658;12.704;2023-06-22T12:48:30;96040.53;;;33.86;35.80
21900;BME280;11114;50.658;12.704;2023-06-22T12:51:22;96037.59;;;33.60;36.05
21900;BME280;11114;50.658;12.704;2023-06-22T12:54:08;96045.13;;;33.37;36.76
21900;BME280;11114;50.658;12.704;2023-06-22T12:56:56;96029.13;;;33.13;37.45
21900;BME280;11114;50.658;12.704;2023-06-22T12:59:42;96024.47;;;33.00;37.59
21900;BME280;11114;50.658;12.704;2023-06-22T13:02:30;96024.78;;;32.99;38.08
21900;BME280;11114;50.658;12.704;2023-06-22T13:05:17;96017.75;;;32.98;37.86
21900;BME280;11114;50.658;12.704;2023-06-22T13:08:03;96015.88;;;32.98;37.88
21900;BME280;11114;50.658;12.704;2023-06-22T13:10:50;96006.84;;;32.89;37.83
21900;BME280;11114;50.658;12.704;2023-06-22T13:13:37;96008.16;;;32.78;37.89
21900;BME280;11114;50.658;12.704;2023-06-22T13:16:24;96010.03;;;32.65;38.44
21900;BME280;11114;50.658;12.704;2023-06-22T13:19:11;96004.38;;;32.48;38.08
21900;BME280;11114;50.658;12.704;2023-06-22T13:21:58;96011.16;;;32.32;39.08
21900;BME280;11114;50.658;12.704;2023-06-22T13:24:46;96015.56;;;32.28;38.75
21900;BME280;11114;50.658;12.704;2023-06-22T13:27:32;96012.53;;;32.16;39.20
21900;BME280;11114;50.658;12.704;2023-06-22T13:30:20;96009.03;;;32.15;39.63
21900;BME280;11114;50.658;12.704;2023-06-22T13:33:08;96001.59;;;32.07;38.92
21900;BME280;11114;50.658;12.704;2023-06-22T13:35:55;95988.44;;;32.01;39.28
21900;BME280;11114;50.658;12.704;2023-06-22T13:38:41;95987.84;;;32.04;39.42
21900;BME280;11114;50.658;12.704;2023-06-22T13:41:27;95984.00;;;31.91;39.13
21900;BME280;11114;50.658;12.704;2023-06-22T13:44:14;95974.38;;;31.85;38.94
21900;BME280;11114;50.658;12.704;2023-06-22T13:47:01;95975.41;;;31.89;39.55
21900;BME280;11114;50.658;12.704;2023-06-22T13:49:47;95964.38;;;31.86;40.11
21900;BME280;11114;50.658;12.704;2023-06-22T13:52:34;95954.91;;;31.88;39.52
21900;BME280;11114;50.658;12.704;2023-06-22T13:55:20;95957.59;;;31.88;39.15
21900;BME280;11114;50.658;12.704;2023-06-22T13:58:07;95962.34;;;31.78;38.97
21900;BME280;11114;50.658;12.704;2023-06-22T14:00:53;95950.56;;;31.74;39.56
21900;BME280;11114;50.658;12.704;2023-06-22T14:03:42;95951.56;;;31.78;39.60
21900;BME280;11114;50.658;12.704;2023-06-22T14:06:31;95949.06;;;31.81;39.75
21900;BME280;11114;50.658;12.704;2023-06-22T14:09:18;95945.91;;;31.93;40.27
21900;BME280;11114;50.658;12.704;2023-06-22T14:12:07;95936.63;;;31.99;39.84
21900;BME280;11114;50.658;12.704;2023-06-22T14:14:53;95932.81;;;32.00;39.73
21900;BME280;11114;50.658;12.704;2023-06-22T14:17:40;95925.16;;;32.07;39.09
21900;BME280;11114;50.658;12.704;2023-06-22T14:20:26;95919.84;;;32.02;38.83
21900;BME280;11114;50.658;12.704;2023-06-22T14:23:14;95917.38;;;31.87;39.55
21900;BME280;11114;50.658;12.704;2023-06-22T14:26:01;95912.59;;;31.84;40.08
21900;BME280;11114;50.658;12.704;2023-06-22T14:28:48;95910.28;;;31.91;40.02
21900;BME280;11114;50.658;12.704;2023-06-22T14:31:36;95908.97;;;31.75;39.72
21900;BME280;11114;50.658;12.704;2023-06-22T14:34:23;95908.53;;;31.68;39.92
21900;BME280;11114;50.658;12.704;2023-06-22T14:37:10;95896.72;;;31.64;40.49
21900;BME280;11114;50.658;12.704;2023-06-22T14:39:56;95890.31;;;31.60;39.83
21900;BME280;11114;50.658;12.704;2023-06-22T14:42:43;95893.50;;;31.62;40.32
21900;BME280;11114;50.658;12.704;2023-06-22T14:45:29;95897.63;;;31.60;39.89
21900;BME280;11114;50.658;12.704;2023-06-22T14:48:16;95893.44;;;31.49;40.45